createdAt,value
2022-12-14T03:20:38.245Z,8.17
2022-12-14T03:23:11.114Z,7.50
2022-12-14T03:25:53.998Z,9.10
2022-12-14T03:28:26.634Z,8.07
2022-12-14T03:31:01.479Z,8.03
2022-12-14T03:33:31.569Z,8.33
2022-12-14T03:36:10.090Z,8.73
2022-12-14T03:38:44.926Z,7.60
2022-12-14T03:41:20.983Z,8.80
2022-12-14T03:44:15.767Z,9.03
2022-12-14T03:47:20.273Z,7.67
2022-12-14T03:50:01.428Z,8.63
2022-12-14T03:53:15.898Z,8.50
2022-12-14T03:56:00.095Z,8.20
2022-12-14T03:58:45.585Z,9.33
2022-12-14T04:01:18.759Z,7.40
2022-12-14T04:04:04.099Z,7.67
2022-12-14T04:06:50.173Z,7.90
2022-12-14T04:09:23.214Z,8.40
2022-12-14T04:12:21.568Z,7.70
2022-12-14T04:15:14.980Z,7.53
2022-12-14T04:18:03.138Z,7.83
2022-12-14T04:20:53.413Z,7.57
2022-12-14T04:23:43.885Z,7.73
2022-12-14T04:26:15.706Z,8.00
2022-12-14T04:29:07.027Z,8.57
2022-12-14T04:31:36.618Z,7.43
2022-12-14T04:34:06.019Z,8.90
2022-12-14T04:36:42.888Z,7.90
2022-12-14T04:39:21.009Z,8.10
2022-12-14T04:41:51.485Z,7.67
2022-12-14T04:44:49.905Z,7.47
2022-12-14T04:47:19.467Z,8.03
2022-12-14T04:49:53.884Z,8.20
2022-12-14T04:52:33.375Z,8.47
2022-12-14T04:55:22.335Z,8.03
2022-12-14T04:57:59.206Z,8.10
2022-12-14T05:00:27.698Z,7.97
2022-12-14T05:03:24.160Z,8.57
2022-12-14T05:06:09.204Z,8.47
2022-12-14T05:08:54.882Z,8.00
2022-12-14T05:14:33.656Z,9.03
2022-12-14T05:17:08.431Z,7.80
2022-12-14T05:19:36.412Z,8.33
2022-12-14T05:22:08.232Z,8.53
2022-12-14T05:24:35.302Z,8.63
2022-12-14T06:28:37.883Z,9.63
2022-12-14T06:31:06.599Z,9.67
2022-12-14T06:33:37.421Z,12.10
2022-12-14T06:36:04.542Z,11.00
2022-12-14T06:38:31.399Z,11.37
2022-12-14T06:40:58.380Z,15.98
2022-12-14T06:43:26.696Z,14.13
2022-12-14T06:45:54.030Z,14.30
2022-12-14T06:48:21.040Z,14.73
2022-12-14T06:50:48.052Z,14.93
2022-12-14T06:53:14.983Z,16.23
2022-12-14T06:55:41.892Z,14.17
2022-12-14T06:58:13.098Z,15.23
2022-12-14T07:00:40.041Z,16.27
2022-12-14T07:05:34.875Z,16.63
2022-12-14T07:08:01.796Z,20.33
2022-12-14T07:10:28.873Z,21.17
2022-12-14T07:12:55.785Z,19.13
2022-12-14T07:15:22.642Z,20.23
2022-12-14T07:17:49.574Z,17.43
2022-12-14T07:20:16.489Z,18.77
2022-12-14T07:22:43.485Z,17.63
2022-12-14T07:25:16.073Z,17.07
2022-12-14T07:27:43.122Z,15.87
2022-12-14T07:30:10.622Z,15.90
2022-12-14T07:32:37.484Z,15.63
2022-12-14T07:35:05.291Z,15.43
2022-12-14T07:37:32.192Z,15.00
2022-12-14T07:39:59.326Z,15.87
2022-12-14T07:42:26.142Z,17.20
2022-12-14T07:44:53.066Z,22.83
2022-12-14T07:47:19.887Z,20.60
2022-12-14T07:49:46.738Z,21.30
2022-12-14T07:52:14.668Z,20.10
2022-12-14T07:54:42.605Z,18.20
2022-12-14T07:57:09.656Z,18.63
2022-12-14T07:59:37.107Z,16.63
2022-12-14T08:02:04.284Z,19.17
2022-12-14T08:04:31.406Z,18.03
2022-12-14T08:07:01.531Z,18.23
2022-12-14T08:09:28.403Z,17.33
2022-12-14T08:11:55.292Z,17.97
2022-12-14T08:14:22.579Z,17.13
2022-12-14T08:16:50.574Z,18.57
2022-12-14T08:19:19.228Z,17.63
2022-12-14T08:21:46.225Z,17.97
2022-12-14T08:24:13.702Z,18.63
2022-12-14T08:26:40.652Z,18.83
2022-12-14T08:29:07.742Z,20.83
2022-12-14T08:31:35.136Z,20.03
2022-12-14T08:34:02.995Z,19.93
2022-12-14T08:36:32.907Z,19.03
2022-12-14T08:39:03.518Z,20.20
2022-12-14T08:41:30.938Z,19.87
2022-12-14T08:43:59.723Z,19.60
2022-12-14T08:46:28.294Z,22.07
2022-12-14T08:48:55.974Z,19.93
2022-12-14T08:51:23.885Z,20.00
2022-12-14T08:53:51.934Z,19.50
2022-12-14T08:56:22.082Z,19.60
2022-12-14T08:58:49.335Z,19.80
2022-12-14T09:01:25.744Z,18.47
2022-12-14T09:04:01.749Z,19.77
2022-12-14T09:06:28.627Z,18.60
2022-12-14T09:08:57.351Z,19.43
2022-12-14T09:11:24.324Z,20.73
2022-12-14T09:13:54.730Z,27.17
2022-12-14T09:16:22.992Z,28.83
2022-12-14T09:18:50.638Z,27.77
2022-12-14T09:21:18.203Z,28.40
2022-12-14T09:23:45.811Z,23.37
2022-12-14T09:26:17.548Z,22.27
2022-12-14T09:28:50.857Z,23.93
2022-12-14T09:31:22.486Z,21.77
2022-12-14T09:33:50.207Z,22.73
2022-12-14T09:36:20.386Z,21.63
2022-12-14T09:38:51.992Z,22.27
2022-12-14T09:41:19.782Z,22.07
2022-12-14T09:44:17.943Z,22.13
2022-12-14T09:47:19.418Z,23.97
2022-12-14T09:50:00.682Z,21.97
2022-12-14T09:52:51.257Z,22.03
2022-12-14T09:55:27.178Z,20.83
2022-12-14T09:57:59.586Z,22.03
2022-12-14T10:00:34.449Z,21.90
2022-12-14T10:03:22.717Z,22.47
2022-12-14T10:06:17.680Z,26.77
2022-12-14T10:09:06.954Z,26.27
2022-12-14T10:11:43.415Z,26.02
2022-12-14T10:14:44.361Z,25.87
2022-12-14T10:17:38.369Z,26.85
2022-12-14T10:20:17.871Z,21.57
2022-12-14T11:12:13.246Z,15.40
2022-12-14T11:15:04.866Z,15.07
2022-12-14T11:17:33.570Z,15.17
2022-12-14T11:20:07.470Z,14.70
2022-12-14T11:22:49.625Z,15.10
2022-12-14T11:25:35.371Z,13.27
2022-12-14T11:28:18.667Z,13.67
2022-12-14T11:31:20.890Z,13.33
2022-12-14T11:33:50.699Z,11.50
2022-12-14T11:36:25.020Z,12.00
2022-12-14T11:39:00.418Z,10.90
2022-12-14T11:41:35.146Z,10.73
2022-12-14T11:44:16.241Z,10.87
2022-12-14T11:46:58.326Z,11.67
2022-12-14T11:49:30.070Z,11.00
2022-12-14T11:52:06.134Z,10.37
2022-12-14T11:54:39.462Z,10.57
2022-12-14T11:57:08.696Z,9.97
2022-12-14T11:59:47.894Z,10.27
2022-12-14T12:02:35.461Z,10.57
2022-12-14T12:05:10.943Z,10.30
2022-12-14T12:07:42.520Z,9.30
2022-12-14T12:10:12.341Z,10.83
2022-12-14T12:12:52.260Z,10.87
2022-12-14T12:15:49.866Z,10.10
2022-12-14T12:18:24.124Z,10.70
2022-12-14T12:21:33.279Z,10.00
2022-12-14T12:24:34.519Z,10.70
2022-12-14T12:27:12.124Z,8.83
2022-12-14T12:29:45.106Z,10.07
2022-12-14T12:32:18.704Z,9.60
2022-12-14T12:35:01.354Z,8.87
2022-12-14T12:37:41.447Z,9.67
2022-12-14T12:40:27.025Z,9.37
2022-12-14T12:43:02.244Z,8.67
2022-12-14T12:45:42.123Z,8.93
2022-12-14T12:48:35.084Z,9.10
2022-12-14T12:51:07.217Z,9.03
2022-12-14T12:53:41.368Z,9.77
2022-12-14T12:56:13.530Z,8.77
2022-12-14T12:58:41.336Z,8.87
2022-12-14T13:01:33.737Z,9.20
2022-12-14T13:04:05.869Z,9.83
2022-12-14T13:06:53.549Z,8.50
2022-12-14T13:09:39.135Z,8.37
2022-12-14T13:12:14.952Z,8.47
2022-12-14T13:14:49.937Z,8.17
2022-12-14T13:17:40.164Z,9.00
2022-12-14T13:20:24.396Z,9.00
2022-12-14T13:22:52.457Z,8.83
2022-12-14T13:25:27.471Z,8.67
2022-12-14T13:28:32.692Z,8.17
2022-12-14T13:31:05.516Z,8.63
2022-12-14T13:33:38.783Z,8.53
2022-12-14T13:36:24.138Z,9.63
2022-12-14T13:39:02.446Z,9.23
2022-12-14T13:41:50.927Z,9.13
2022-12-14T13:44:28.542Z,9.37
2022-12-14T13:47:05.926Z,8.70
2022-12-14T13:49:33.756Z,10.43
2022-12-14T13:52:00.848Z,9.07
2022-12-14T13:54:32.864Z,8.80
2022-12-14T13:57:23.828Z,8.83
2022-12-14T13:59:53.728Z,8.53
2022-12-14T14:02:32.751Z,9.30
2022-12-14T14:05:15.126Z,9.47
2022-12-14T14:07:53.601Z,11.07
2022-12-14T14:10:32.441Z,9.30
2022-12-14T14:13:01.192Z,8.27
2022-12-14T14:15:51.937Z,9.90
2022-12-14T14:18:31.590Z,9.80
2022-12-14T14:21:14.222Z,9.77
2022-12-14T14:23:58.407Z,10.57
2022-12-14T14:26:26.268Z,9.37
2022-12-14T14:29:24.371Z,10.37
2022-12-14T14:31:58.265Z,9.23
2022-12-14T14:35:00.557Z,9.90
2022-12-14T14:37:32.346Z,10.43
2022-12-14T14:40:23.495Z,11.17
2022-12-14T14:43:06.650Z,10.70
2022-12-14T14:45:47.393Z,9.80
2022-12-14T14:48:33.527Z,9.67
2022-12-14T14:51:18.014Z,13.20
2022-12-14T14:53:45.108Z,10.67
2022-12-14T14:56:30.036Z,10.07
2022-12-14T14:59:18.038Z,10.33
2022-12-14T15:01:52.188Z,11.50
2022-12-14T15:04:28.192Z,16.50
2022-12-14T15:06:58.934Z,15.73
2022-12-14T15:09:44.201Z,19.47
2022-12-14T15:12:31.112Z,23.03
2022-12-14T15:15:02.478Z,23.37
2022-12-14T15:17:29.541Z,26.67
2022-12-14T15:20:01.664Z,31.77
2022-12-14T15:22:41.573Z,25.57
2022-12-14T15:25:23.252Z,21.00
2022-12-14T15:27:50.833Z,21.77
2022-12-14T15:30:22.652Z,17.70
2022-12-14T15:33:08.168Z,15.67
2022-12-14T15:35:38.571Z,14.77
2022-12-14T15:38:38.315Z,15.90
2022-12-14T15:41:14.329Z,16.70
2022-12-14T15:43:56.450Z,16.80
2022-12-14T15:46:28.709Z,18.07
2022-12-14T15:49:00.522Z,19.63
2022-12-14T15:51:37.590Z,18.40
2022-12-14T15:54:08.234Z,17.60
2022-12-14T15:56:42.152Z,18.97
2022-12-14T15:59:22.446Z,21.70
2022-12-14T16:01:56.795Z,21.90
2022-12-14T16:04:28.077Z,19.57
2022-12-14T16:07:09.000Z,20.10
2022-12-14T16:10:00.651Z,18.80
2022-12-14T16:12:31.029Z,23.40
2022-12-14T16:15:00.121Z,20.43
2022-12-14T16:17:32.322Z,20.23
2022-12-14T16:20:02.621Z,21.70
2022-12-14T16:22:32.039Z,21.30
2022-12-14T16:25:19.722Z,23.83
2022-12-14T16:27:49.815Z,23.97
2022-12-14T16:30:30.076Z,24.17
2022-12-14T16:33:20.034Z,26.67
2022-12-14T16:38:17.368Z,29.87
2022-12-14T16:41:02.845Z,35.63
2022-12-14T16:43:41.691Z,32.28
2022-12-14T16:48:49.995Z,24.40
2022-12-14T16:51:37.849Z,18.67
2022-12-14T16:54:27.419Z,19.90
